ENVAENAL

Guest
Details From ENVA - Vaernes
To ENAL - Ålesund Lufthavn, Vigra
Flight Number -
Tags Routegen Generated
Created
Modified
Stats Distance 141 nm / 260 km
Max Altitude 600 ft / 183 m
Waypoints 6
Social Downloads 4
Likes 0
Share VATSIM

Download

Looking for another format? Having issues loading an existing format? Contact us
Advertisement - Login to hide

Notes

Departing runway 27 ENVA. Arriving runway 6 ENAL.

Route

ENVA +63.46_+010.73 +63.44_+010.61 +63.13_+008.94 +62.60_+006.27 ENAL

ID Type Via Altitude Latitude Longitude Leg Dist Tot Dist Heading (true) Name
O ENVA APT - 600 ft / 183 m 63.45766˚ 10.88929˚ - 0 nm - -
+63.46_+010.73 LATLON - 600 ft / 183 m 63.45789˚ 10.72735˚ 4 nm 4 nm 270° / 270° -
+63.44_+010.61 LATLON - 600 ft / 183 m 63.43828˚ 10.60549˚ 3 nm 7 nm 250° / 250° -
+63.13_+008.94 LATLON - 600 ft / 183 m 63.13309˚ 8.93554˚ 48 nm 56 nm 249° / 247° -
+62.60_+006.27 LATLON - 600 ft / 183 m 62.59572˚ 6.27257˚ 79 nm 136 nm 247° / 245° -
O ENAL APT - 0 ft / 0 m 62.56481˚ 6.13049˚ 4 nm 140 nm 245° / 245° -

Altitude Profile

Advertisement - Login to hide

ENVA

Details ICAO ENVA (TRD)
Name Vaernes
Region Norway
Timezone Europe/Oslo (UTC+1.0)
Stats Elevation 56 ft / 17 m (AMSL)
Location 63.457605° 10.917980°
Runways 1
Magnetic Variation 3.494° E

METAR

ENVA 130350Z 23018KT 2100 -SN VV011 00/M01 Q0987 RMK WIND 670FT 23016KT

Decode

TAF

TAF ENVA 122300Z 1300/1324 12007KT 5000 -SHSN VV018 TEMPO 1300/1307 0800 SHSN VV005 BECMG 1300/1302 24012KT TEMPO 1300/1305 26015G25KT BECMG 1307/1310 12007KT CAVOK

Decode

Departure Runways

ID Width Length Bearing (true) Bearing (mag) Surface Threshold Offset Overrun Length
09 148 ft / 45 m 9,356 ft / 2,852 m 90.21° 86.72° Asphalt 984 ft / 300 m 0 ft / 0 m
27 148 ft / 45 m 9,356 ft / 2,852 m 270.26° 266.77° Asphalt 689 ft / 210 m 0 ft / 0 m

ENAL

Details ICAO ENAL (AES)
Name Alesund lufthavn - Vigra
Region Norway
Timezone Europe/Oslo (UTC+1.0)
Stats Elevation 69 ft / 21 m (AMSL)
Location 62.560371° 6.110165°
Runways 1
Magnetic Variation 1.161° E

METAR

ENAL 130350Z AUTO 18012KT 9999 SCT049/// 04/M02 Q0987

Decode

TAF

Not found

Destination Runways

ID Width Length Bearing (true) Bearing (mag) Surface Threshold Offset Overrun Length
07 148 ft / 45 m 7,563 ft / 2,305 m 64.61° 63.45° Asphalt 492 ft / 150 m 0 ft / 0 m
25 148 ft / 45 m 7,563 ft / 2,305 m 244.65° 243.49° Asphalt 758 ft / 231 m 0 ft / 0 m

Approach Navaids

Runway Type Ident Frequency Range Bearing (true) Bearing (mag) Slope Elevation
25 Localiser VGR 111.95 MHz 18 nm / 33 km 244.61° 243.45° - 72 ft / 22 m (AMSL)
25 Glidescope VGR 111.95 MHz 10 nm / 19 km 244.61° 243.45° 3.00° 18 ft / 5 m (AMSL)

Popular Alternatives